Time;durP1;ratioP1;P1;durP2;ratioP2;P2;SDS_P1;SDS_P2;PMS_P1;PMS_P2;Temp;Humidity;BMP_temperature;BMP_pressure;BME280_temperature;BME280_humidity;BME280_pressure;Samples;Min_cycle;Max_cycle;Signal;HPM_P1;HPM_P2
2023/08/12 00:00:13;;;;;;;8.27;4.40;;;21.50;99.90;;;;;;5093767;28;20176;-73
2023/08/12 00:02:40;;;;;;;6.15;4.32;;;21.50;99.90;;;;;;5093704;28;20187;-74
2023/08/12 00:05:06;;;;;;;8.25;4.72;;;21.40;99.90;;;;;;5093535;28;20603;-72
2023/08/12 00:07:33;;;;;;;5.43;4.20;;;21.40;99.90;;;;;;5093343;28;20175;-73
2023/08/12 00:10:01;;;;;;;6.72;4.85;;;21.40;99.90;;;;;;5093641;28;20191;-73
2023/08/12 00:12:27;;;;;;;6.32;4.55;;;21.40;99.90;;;;;;5093646;28;20171;-72
2023/08/12 00:14:52;;;;;;;6.25;4.50;;;21.40;99.90;;;;;;5093539;28;20207;-73
2023/08/12 00:17:18;;;;;;;6.18;5.00;;;21.50;99.90;;;;;;5093660;28;20195;-72
2023/08/12 00:19:43;;;;;;;9.77;4.60;;;21.50;99.90;;;;;;5093316;28;20662;-73
2023/08/12 00:22:09;;;;;;;8.70;4.93;;;21.60;99.90;;;;;;5093305;28;20175;-72
2023/08/12 00:24:35;;;;;;;5.90;5.10;;;21.50;99.90;;;;;;5093422;28;20285;-72
2023/08/12 00:27:00;;;;;;;7.50;5.20;;;21.40;99.90;;;;;;5093525;28;20176;-72
2023/08/12 00:29:26;;;;;;;7.32;4.60;;;21.30;99.90;;;;;;5093449;28;20191;-72
2023/08/12 00:31:52;;;;;;;7.15;5.20;;;21.40;99.90;;;;;;5093270;28;20203;-72
2023/08/12 00:34:17;;;;;;;8.55;5.18;;;21.40;99.90;;;;;;5093268;28;20610;-73
2023/08/12 00:36:43;;;;;;;5.18;4.68;;;21.40;99.90;;;;;;5092968;28;20519;-74
2023/08/12 00:39:09;;;;;;;8.73;5.10;;;21.30;99.90;;;;;;5093372;28;20183;-72
2023/08/12 00:41:34;;;;;;;6.80;4.80;;;21.40;99.90;;;;;;5092873;28;20198;-73
2023/08/12 00:44:00;;;;;;;7.13;5.32;;;21.40;99.90;;;;;;5093194;28;20175;-72
2023/08/12 00:46:25;;;;;;;6.20;4.90;;;21.30;99.90;;;;;;5093158;28;20221;-73
2023/08/12 00:48:51;;;;;;;13.27;5.28;;;21.40;99.90;;;;;;5095275;28;20683;-71
2023/08/12 00:51:17;;;;;;;12.20;5.50;;;21.30;99.90;;;;;;5096826;28;20612;-73
2023/08/12 00:53:45;;;;;;;7.45;4.97;;;21.30;99.90;;;;;;5097457;28;20511;-72
2023/08/12 00:56:11;;;;;;;9.40;5.03;;;21.30;99.90;;;;;;5097259;28;20168;-72
2023/08/12 00:58:37;;;;;;;7.47;4.80;;;21.30;99.90;;;;;;5097287;28;20168;-72
2023/08/12 01:01:03;;;;;;;8.95;5.15;;;21.30;99.90;;;;;;5097195;28;20171;-72
2023/08/12 01:03:30;;;;;;;10.90;5.80;;;21.30;99.90;;;;;;5096992;28;20217;-73
2023/08/12 01:05:56;;;;;;;9.57;5.72;;;21.30;99.90;;;;;;5096803;28;20214;-73
2023/08/12 01:08:28;;;;;;;6.68;5.65;;;21.30;99.90;;;;;;5095695;28;20508;-71
2023/08/12 01:11:12;;;;;;;6.65;5.93;;;21.10;99.90;;;;;;5096988;28;20200;-73
2023/08/12 01:13:58;;;;;;;10.50;6.22;;;21.10;99.90;;;;;;5096988;28;20208;-72
2023/08/12 01:16:28;;;;;;;8.20;6.20;;;21.00;99.90;;;;;;5096909;28;20639;-71
2023/08/12 01:18:54;;;;;;;8.68;6.40;;;21.00;99.90;;;;;;5096851;28;20702;-72
2023/08/12 01:21:21;;;;;;;12.70;6.95;;;21.00;99.90;;;;;;5096594;28;20263;-71
2023/08/12 01:23:48;;;;;;;13.02;6.70;;;20.80;99.90;;;;;;5096593;28;20171;-72
2023/08/12 01:26:13;;;;;;;11.18;6.93;;;20.80;99.90;;;;;;5096663;28;20168;-72
2023/08/12 01:28:39;;;;;;;7.78;6.68;;;20.90;99.90;;;;;;5096688;28;20257;-72
2023/08/12 01:31:30;;;;;;;9.90;7.20;;;20.90;99.90;;;;;;5096486;28;20348;-72
2023/08/12 01:34:16;;;;;;;9.85;7.13;;;21.00;99.90;;;;;;5096347;28;20662;-72
2023/08/12 01:36:48;;;;;;;10.25;7.40;;;21.00;99.90;;;;;;5096543;28;20256;-72
2023/08/12 01:39:15;;;;;;;11.75;7.35;;;21.10;99.90;;;;;;5096472;28;20638;-72
2023/08/12 01:41:41;;;;;;;12.02;7.13;;;21.00;99.90;;;;;;5096086;28;20196;-72
2023/08/12 01:44:07;;;;;;;9.57;6.93;;;21.00;99.90;;;;;;5095220;28;21480;-71
2023/08/12 01:46:32;;;;;;;11.18;7.05;;;21.10;99.90;;;;;;5095188;28;20175;-71
2023/08/12 01:48:58;;;;;;;10.52;7.35;;;21.10;99.90;;;;;;5094674;28;20164;-71
2023/08/12 01:51:23;;;;;;;11.68;6.95;;;21.10;99.90;;;;;;5094778;28;20261;-71
2023/08/12 01:53:49;;;;;;;9.38;7.28;;;21.10;99.90;;;;;;5094900;28;20174;-72
2023/08/12 01:56:15;;;;;;;11.35;7.50;;;21.10;99.90;;;;;;5094932;28;20643;-72
2023/08/12 01:58:40;;;;;;;11.60;6.88;;;21.00;99.90;;;;;;5094876;28;20179;-72
2023/08/12 02:01:06;;;;;;;12.05;7.30;;;21.00;99.90;;;;;;5095108;28;20690;-72
2023/08/12 02:03:31;;;;;;;9.02;5.80;;;20.90;99.90;;;;;;5094775;28;20569;-72
2023/08/12 02:05:57;;;;;;;9.60;6.43;;;21.00;99.90;;;;;;5094747;28;20180;-72
2023/08/12 02:08:22;;;;;;;11.30;6.63;;;20.90;99.90;;;;;;5094916;28;20164;-71
2023/08/12 02:10:48;;;;;;;10.65;6.68;;;20.90;99.90;;;;;;5094612;28;20211;-71
2023/08/12 02:13:13;;;;;;;8.15;6.30;;;20.80;99.90;;;;;;5094983;28;20168;-72
2023/08/12 02:15:39;;;;;;;9.57;6.65;;;20.90;99.90;;;;;;5094599;28;20240;-73
2023/08/12 02:18:05;;;;;;;9.88;6.63;;;20.90;99.90;;;;;;5094417;28;20199;-72
2023/08/12 02:20:30;;;;;;;9.05;6.80;;;20.90;99.90;;;;;;5094627;28;20165;-71
2023/08/12 02:22:56;;;;;;;9.35;6.47;;;21.00;99.90;;;;;;5094699;28;20594;-71
2023/08/12 02:25:21;;;;;;;7.43;6.63;;;21.00;99.90;;;;;;5094269;28;20172;-71
2023/08/12 02:27:47;;;;;;;11.27;6.55;;;20.90;99.90;;;;;;5094630;28;20180;-72
2023/08/12 02:30:13;;;;;;;9.15;6.82;;;21.00;99.90;;;;;;5094552;28;20203;-72
2023/08/12 02:32:38;;;;;;;11.00;7.28;;;21.10;99.90;;;;;;5094234;28;20527;-72
2023/08/12 02:35:04;;;;;;;10.32;6.68;;;21.00;99.90;;;;;;5094465;28;20675;-72
2023/08/12 02:37:30;;;;;;;8.68;6.22;;;20.90;99.90;;;;;;5094485;28;20172;-73
2023/08/12 02:39:55;;;;;;;9.70;6.63;;;20.80;99.90;;;;;;5094090;28;20176;-72
2023/08/12 02:42:21;;;;;;;12.82;7.25;;;20.80;99.90;;;;;;5055104;28;1124971;-72
2023/08/12 02:44:46;;;;;;;8.38;6.53;;;20.70;99.90;;;;;;5095232;28;20186;-72
2023/08/12 02:47:12;;;;;;;11.73;7.35;;;20.70;99.90;;;;;;5094802;28;20251;-72
2023/08/12 02:49:37;;;;;;;14.55;7.43;;;20.70;99.90;;;;;;5095289;28;20168;-72
2023/08/12 02:52:03;;;;;;;9.40;6.60;;;20.70;99.90;;;;;;5094857;28;20215;-73
2023/08/12 02:54:29;;;;;;;10.77;7.18;;;20.70;99.90;;;;;;5095093;28;20179;-72
2023/08/12 02:56:55;;;;;;;10.52;7.00;;;20.60;99.90;;;;;;5094783;28;20221;-72
2023/08/12 02:59:20;;;;;;;9.68;6.70;;;20.60;99.90;;;;;;5094694;28;20226;-72
2023/08/12 03:01:47;;;;;;;9.55;7.10;;;20.60;99.90;;;;;;5094697;28;20168;-71
2023/08/12 03:04:12;;;;;;;10.88;8.48;;;20.60;99.90;;;;;;5094992;28;20160;-72
2023/08/12 03:06:38;;;;;;;11.13;7.88;;;20.70;99.90;;;;;;5094521;28;20594;-73
2023/08/12 03:09:04;;;;;;;11.82;7.90;;;20.60;99.90;;;;;;5094872;28;20175;-72
2023/08/12 03:11:29;;;;;;;14.63;8.23;;;20.60;99.90;;;;;;5092533;28;20203;-72
2023/08/12 03:13:55;;;;;;;12.35;7.72;;;20.60;99.90;;;;;;5094456;28;20692;-73
2023/08/12 03:16:21;;;;;;;12.52;7.88;;;20.60;99.90;;;;;;5094175;28;20255;-72
2023/08/12 03:18:46;;;;;;;11.95;8.18;;;20.70;99.90;;;;;;5094320;28;20676;-72
2023/08/12 03:21:12;;;;;;;13.02;9.77;;;20.60;99.90;;;;;;5094322;28;20175;-72
2023/08/12 03:23:38;;;;;;;10.82;8.95;;;20.60;99.90;;;;;;5094472;28;20178;-72
2023/08/12 03:26:04;;;;;;;14.48;8.90;;;20.70;99.90;;;;;;5094283;28;20179;-72
2023/08/12 03:28:30;;;;;;;16.25;10.20;;;20.70;99.90;;;;;;5094165;28;20172;-71
2023/08/12 03:30:56;;;;;;;14.35;9.90;;;20.60;99.90;;;;;;5093906;28;20290;-71
2023/08/12 03:33:21;;;;;;;15.50;10.30;;;20.70;99.90;;;;;;5093930;28;20237;-72
2023/08/12 03:35:48;;;;;;;14.30;10.02;;;20.60;99.90;;;;;;5093666;28;20221;-72
2023/08/12 03:38:14;;;;;;;12.35;9.50;;;20.60;99.90;;;;;;5094250;28;20167;-72
2023/08/12 03:40:41;;;;;;;15.15;10.35;;;20.60;99.90;;;;;;5092937;28;20510;-72
2023/08/12 03:43:07;;;;;;;14.10;9.80;;;20.60;99.90;;;;;;5093562;28;20219;-72
2023/08/12 03:45:38;;;;;;;10.38;9.05;;;20.60;99.90;;;;;;5093496;28;20168;-74
2023/08/12 03:48:05;;;;;;;17.27;10.15;;;20.40;99.90;;;;;;5093667;28;20164;-74
2023/08/12 03:50:34;;;;;;;12.55;8.55;;;20.30;99.90;;;;;;5092373;28;20211;-74
2023/08/12 03:53:00;;;;;;;15.27;9.50;;;20.20;99.90;;;;;;5093923;28;20168;-74
2023/08/12 03:55:25;;;;;;;11.00;8.38;;;20.20;99.90;;;;;;5092258;28;20179;-73
2023/08/12 03:57:51;;;;;;;10.88;8.52;;;20.30;99.90;;;;;;5093778;28;20172;-74
2023/08/12 04:00:17;;;;;;;10.20;9.20;;;20.10;99.90;;;;;;5093612;28;20182;-74
2023/08/12 04:02:43;;;;;;;9.02;6.95;;;20.20;99.90;;;;;;5093411;28;20246;-74
2023/08/12 04:05:09;;;;;;;10.05;7.30;;;20.10;99.90;;;;;;5092996;28;20178;-74
2023/08/12 04:07:36;;;;;;;7.80;7.13;;;20.10;99.90;;;;;;5093509;28;20265;-74
2023/08/12 04:10:02;;;;;;;8.45;6.75;;;20.10;99.90;;;;;;5093547;28;20209;-74
2023/08/12 04:12:28;;;;;;;7.65;6.68;;;20.10;99.90;;;;;;5093285;28;20184;-74
2023/08/12 04:14:54;;;;;;;7.15;6.45;;;20.10;99.90;;;;;;5093007;28;20176;-74
2023/08/12 04:17:19;;;;;;;6.32;5.72;;;20.10;99.90;;;;;;5093030;28;20175;-73
2023/08/12 04:19:45;;;;;;;5.60;5.20;;;20.00;99.90;;;;;;5093561;28;20168;-74
2023/08/12 04:22:10;;;;;;;5.93;5.43;;;20.00;99.90;;;;;;5093285;28;20629;-73
2023/08/12 04:24:36;;;;;;;5.30;4.90;;;20.00;99.90;;;;;;5093253;28;20172;-74
2023/08/12 04:27:02;;;;;;;6.05;5.60;;;19.90;99.90;;;;;;5093285;28;20560;-74
2023/08/12 04:29:27;;;;;;;5.55;5.25;;;20.00;99.90;;;;;;5092951;28;20176;-73
2023/08/12 04:31:53;;;;;;;5.82;5.43;;;20.00;99.90;;;;;;5093192;28;20220;-73
2023/08/12 04:34:18;;;;;;;6.95;5.70;;;20.00;99.90;;;;;;5093277;28;20164;-73
2023/08/12 04:36:44;;;;;;;5.95;5.45;;;20.00;99.90;;;;;;5093403;28;20178;-74
2023/08/12 04:39:10;;;;;;;6.22;5.72;;;20.00;99.90;;;;;;5093258;28;20172;-72
2023/08/12 04:41:38;;;;;;;6.55;5.95;;;20.10;99.90;;;;;;5092754;28;20517;-73
2023/08/12 04:44:04;;;;;;;6.63;6.03;;;20.10;99.90;;;;;;5092459;28;20190;-74
2023/08/12 04:46:30;;;;;;;7.10;6.28;;;20.10;99.90;;;;;;5092910;28;20531;-72
2023/08/12 04:48:56;;;;;;;5.75;5.35;;;20.20;99.90;;;;;;5093124;28;20169;-72
2023/08/12 04:51:21;;;;;;;6.85;6.25;;;20.20;99.90;;;;;;5092534;28;20750;-73
2023/08/12 04:53:47;;;;;;;6.13;5.57;;;20.20;99.90;;;;;;5092718;28;20175;-72
2023/08/12 04:56:12;;;;;;;21.83;19.85;;;20.30;99.90;;;;;;5093110;28;20180;-73
2023/08/12 04:58:38;;;;;;;7.80;6.50;;;20.30;99.90;;;;;;5092511;28;20221;-73
2023/08/12 05:01:04;;;;;;;6.35;5.90;;;20.20;99.90;;;;;;5092810;28;20175;-72
2023/08/12 05:03:29;;;;;;;6.70;6.05;;;20.20;99.90;;;;;;5092833;28;20671;-73
2023/08/12 05:05:55;;;;;;;6.72;6.22;;;20.10;99.90;;;;;;5092550;28;20187;-73
2023/08/12 05:08:21;;;;;;;6.70;6.25;;;20.10;99.90;;;;;;5093150;28;20192;-72
2023/08/12 05:10:48;;;;;;;8.10;7.28;;;20.00;99.90;;;;;;5092720;28;20218;-73
2023/08/12 05:13:14;;;;;;;7.20;6.57;;;20.00;99.90;;;;;;5092379;28;20168;-73
2023/08/12 05:15:40;;;;;;;7.85;7.13;;;20.00;99.90;;;;;;5092424;28;20164;-73
2023/08/12 05:18:06;;;;;;;7.68;7.00;;;20.00;99.90;;;;;;5093015;28;20570;-73
2023/08/12 05:20:31;;;;;;;8.45;7.85;;;20.00;99.90;;;;;;5093087;28;20680;-73
2023/08/12 05:22:57;;;;;;;7.97;7.28;;;20.00;99.90;;;;;;5092777;28;20172;-72
2023/08/12 05:25:23;;;;;;;9.32;7.90;;;20.00;99.90;;;;;;5092737;28;20524;-73
2023/08/12 05:27:49;;;;;;;8.85;8.05;;;20.00;99.90;;;;;;5090956;28;20236;-72
2023/08/12 05:30:15;;;;;;;9.15;8.15;;;20.10;99.90;;;;;;5092678;28;20204;-72
2023/08/12 05:32:40;;;;;;;9.43;8.57;;;20.10;99.90;;;;;;5092666;28;20179;-72
2023/08/12 05:35:06;;;;;;;8.93;8.23;;;20.10;99.90;;;;;;5095154;28;20164;-72
2023/08/12 05:37:32;;;;;;;8.63;7.93;;;20.10;99.90;;;;;;5096678;28;20172;-72
2023/08/12 05:39:57;;;;;;;9.45;8.65;;;20.00;99.90;;;;;;5095930;28;20244;-72
2023/08/12 05:42:23;;;;;;;10.20;9.30;;;20.00;99.90;;;;;;5095671;28;20232;-72
2023/08/12 05:44:49;;;;;;;9.70;8.77;;;20.00;99.90;;;;;;5096202;28;20167;-72
2023/08/12 05:47:14;;;;;;;10.15;9.25;;;19.90;99.90;;;;;;5096122;28;20271;-72
2023/08/12 05:49:40;;;;;;;10.25;9.27;;;20.00;99.90;;;;;;5096247;28;20176;-72
2023/08/12 05:52:05;;;;;;;9.73;9.02;;;20.00;99.90;;;;;;5095550;28;20329;-72
2023/08/12 05:54:31;;;;;;;10.68;9.70;;;20.00;99.90;;;;;;5096052;28;20164;-73
2023/08/12 05:56:57;;;;;;;10.60;9.60;;;20.00;99.90;;;;;;5095824;28;20623;-73
2023/08/12 05:59:23;;;;;;;11.32;10.20;;;20.00;99.90;;;;;;5095747;28;20214;-71
2023/08/12 06:01:48;;;;;;;10.27;9.25;;;20.00;99.90;;;;;;5096097;28;20168;-72
2023/08/12 06:04:14;;;;;;;10.82;9.93;;;20.10;99.90;;;;;;5095518;28;20631;-72
2023/08/12 06:06:39;;;;;;;9.30;8.43;;;20.00;99.90;;;;;;5095495;28;20164;-72
2023/08/12 06:09:05;;;;;;;8.55;7.75;;;20.00;99.90;;;;;;5095525;28;20204;-72
2023/08/12 06:11:30;;;;;;;9.25;8.35;;;20.10;99.90;;;;;;5094080;28;20207;-72
2023/08/12 06:13:56;;;;;;;9.10;7.93;;;20.00;99.90;;;;;;5095455;28;20175;-72
2023/08/12 06:16:22;;;;;;;9.00;8.07;;;20.00;99.90;;;;;;5095489;28;20528;-71
2023/08/12 06:18:47;;;;;;;8.35;7.68;;;20.00;99.90;;;;;;5095520;28;20172;-72
2023/08/12 06:21:13;;;;;;;8.63;7.78;;;20.00;99.90;;;;;;5095436;28;20164;-71
2023/08/12 06:23:38;;;;;;;8.63;7.22;;;20.10;99.90;;;;;;5095748;28;20612;-72
2023/08/12 06:26:04;;;;;;;7.68;6.90;;;20.10;99.90;;;;;;5094824;28;20631;-71
2023/08/12 06:28:30;;;;;;;8.27;7.35;;;20.10;99.90;;;;;;5095111;28;20260;-72
2023/08/12 06:30:55;;;;;;;7.25;6.65;;;20.20;99.90;;;;;;5095278;28;20824;-72
2023/08/12 06:33:21;;;;;;;7.15;6.28;;;20.10;99.90;;;;;;5095418;28;20699;-72
2023/08/12 06:35:46;;;;;;;7.13;6.43;;;20.20;99.90;;;;;;5095050;28;20229;-72
2023/08/12 06:38:13;;;;;;;7.10;6.13;;;20.20;99.90;;;;;;5094816;28;20502;-72
2023/08/12 06:40:39;;;;;;;5.57;5.18;;;20.20;99.90;;;;;;5094294;28;20168;-72
2023/08/12 06:43:04;;;;;;;6.03;5.53;;;20.20;99.90;;;;;;5094663;28;20219;-73
2023/08/12 06:45:30;;;;;;;5.55;5.13;;;20.20;99.90;;;;;;5093737;28;20173;-72
2023/08/12 06:47:55;;;;;;;6.45;5.22;;;20.30;99.90;;;;;;5094626;28;20506;-72
2023/08/12 06:50:21;;;;;;;6.00;4.90;;;20.40;99.90;;;;;;5094207;28;20210;-72
2023/08/12 06:52:47;;;;;;;4.90;4.53;;;20.40;99.90;;;;;;5094928;28;20191;-72
2023/08/12 06:55:12;;;;;;;4.70;4.30;;;20.40;99.90;;;;;;5094160;28;20263;-71
2023/08/12 06:57:38;;;;;;;4.70;4.05;;;20.30;99.90;;;;;;5094617;28;20555;-74
2023/08/12 07:00:05;;;;;;;4.70;4.30;;;20.30;99.90;;;;;;5094893;28;20297;-72
2023/08/12 07:02:30;;;;;;;3.95;3.65;;;20.30;99.90;;;;;;5094342;28;20649;-72
2023/08/12 07:04:56;;;;;;;3.65;3.35;;;20.30;99.90;;;;;;5094463;28;20175;-73
2023/08/12 07:07:22;;;;;;;4.05;3.75;;;20.20;99.90;;;;;;5094070;28;20168;-72
2023/08/12 07:09:48;;;;;;;6.82;6.32;;;20.20;99.90;;;;;;5092891;28;20183;-72
2023/08/12 07:12:13;;;;;;;7.90;7.30;;;20.00;99.90;;;;;;5094409;28;20211;-72
2023/08/12 07:14:39;;;;;;;11.90;11.00;;;20.00;99.90;;;;;;5094323;28;20167;-72
2023/08/12 07:17:05;;;;;;;12.23;10.77;;;19.90;99.90;;;;;;5094099;28;20179;-73
2023/08/12 07:19:30;;;;;;;12.10;11.10;;;19.80;99.90;;;;;;5094216;28;20678;-73
2023/08/12 07:21:56;;;;;;;11.57;10.48;;;19.60;99.90;;;;;;5094057;28;20160;-73
2023/08/12 07:24:21;;;;;;;9.77;8.93;;;19.60;99.90;;;;;;5093696;28;20189;-72
2023/08/12 07:26:47;;;;;;;8.00;7.40;;;19.40;99.90;;;;;;5094047;28;20195;-73
2023/08/12 07:29:13;;;;;;;8.60;7.80;;;19.30;99.90;;;;;;5094087;28;20681;-72
2023/08/12 07:31:39;;;;;;;7.93;7.22;;;19.30;99.90;;;;;;5094014;28;20207;-72
2023/08/12 07:34:05;;;;;;;8.27;7.47;;;19.30;99.90;;;;;;5094157;28;20217;-72
2023/08/12 07:36:32;;;;;;;7.85;7.15;;;19.30;99.90;;;;;;5093831;28;20564;-72
2023/08/12 07:38:58;;;;;;;8.57;7.80;;;19.40;99.90;;;;;;5094059;28;20706;-72
2023/08/12 07:41:27;;;;;;;9.57;8.70;;;19.50;99.90;;;;;;5093450;28;20207;-72
2023/08/12 07:43:53;;;;;;;9.93;8.93;;;19.50;99.90;;;;;;5093754;28;20763;-72
2023/08/12 07:46:18;;;;;;;11.18;10.18;;;19.50;99.90;;;;;;5093739;28;20172;-72
2023/08/12 07:48:44;;;;;;;11.93;10.93;;;19.60;99.90;;;;;;5093728;28;20176;-72
2023/08/12 07:51:10;;;;;;;12.60;11.50;;;19.80;99.90;;;;;;5092462;28;20216;-73
2023/08/12 07:53:36;;;;;;;12.77;11.63;;;19.80;99.90;;;;;;5093398;28;20172;-73
2023/08/12 07:56:01;;;;;;;13.35;12.25;;;20.00;99.90;;;;;;5092090;28;20526;-72
2023/08/12 07:58:27;;;;;;;13.88;12.55;;;20.20;99.90;;;;;;5093302;28;20202;-73
2023/08/12 08:00:53;;;;;;;11.73;10.82;;;20.30;99.90;;;;;;5093569;28;20213;-71
2023/08/12 08:03:19;;;;;;;11.73;10.63;;;20.20;99.90;;;;;;5092837;28;20164;-72
2023/08/12 08:05:46;;;;;;;10.63;9.75;;;20.40;99.90;;;;;;5092858;28;20176;-73
2023/08/12 08:08:12;;;;;;;10.10;9.13;;;20.40;99.90;;;;;;5093373;28;20192;-73
2023/08/12 08:10:38;;;;;;;10.05;9.07;;;20.30;99.90;;;;;;5093247;28;20200;-72
2023/08/12 08:13:04;;;;;;;7.90;7.40;;;20.30;99.90;;;;;;5093639;28;20570;-73
2023/08/12 08:15:29;;;;;;;7.28;6.78;;;20.30;99.90;;;;;;5093195;28;20172;-72
2023/08/12 08:17:55;;;;;;;7.35;6.63;;;20.40;99.90;;;;;;5092678;28;20571;-72
2023/08/12 08:20:20;;;;;;;6.03;5.63;;;20.40;99.90;;;;;;5093062;28;20255;-72
2023/08/12 08:22:47;;;;;;;6.50;6.10;;;20.50;99.90;;;;;;5093140;28;20171;-72
2023/08/12 08:25:12;;;;;;;6.43;5.85;;;20.50;99.90;;;;;;5093016;28;20164;-72
2023/08/12 08:27:38;;;;;;;6.60;5.95;;;20.80;99.90;;;;;;5092671;28;20635;-71
2023/08/12 08:30:05;;;;;;;5.90;5.50;;;20.80;99.90;;;;;;5093206;28;20628;-71
2023/08/12 08:32:31;;;;;;;5.97;5.57;;;20.90;99.90;;;;;;5093310;28;20640;-72
2023/08/12 08:34:56;;;;;;;5.97;5.53;;;21.00;99.90;;;;;;5092568;28;20179;-71
2023/08/12 08:37:22;;;;;;;6.30;5.80;;;20.80;99.90;;;;;;5093097;28;20591;-70
2023/08/12 08:39:48;;;;;;;5.32;5.03;;;21.00;99.90;;;;;;5092846;28;20167;-73
2023/08/12 08:42:15;;;;;;;6.07;5.40;;;21.30;99.90;;;;;;5092157;28;20239;-72
2023/08/12 08:44:42;;;;;;;4.97;4.65;;;21.40;99.90;;;;;;5092725;28;20178;-72
2023/08/12 08:47:09;;;;;;;4.93;4.53;;;21.30;99.90;;;;;;5092640;28;20199;-72
2023/08/12 08:49:36;;;;;;;5.28;4.88;;;21.30;99.90;;;;;;5092965;28;20180;-72
2023/08/12 08:52:02;;;;;;;5.57;5.10;;;21.10;99.90;;;;;;5091418;28;20222;-73
2023/08/12 08:54:28;;;;;;;5.63;5.22;;;21.10;99.90;;;;;;5091971;28;20176;-72
2023/08/12 08:56:54;;;;;;;5.07;4.68;;;21.00;99.90;;;;;;5093177;28;20170;-71
2023/08/12 08:59:21;;;;;;;4.32;3.78;;;20.80;99.90;;;;;;5092851;28;20164;-72
2023/08/12 09:01:51;;;;;;;3.72;3.38;;;21.00;99.90;;;;;;5092576;28;20156;-72
2023/08/12 09:04:17;;;;;;;3.47;3.17;;;21.60;99.90;;;;;;5092334;28;20168;-72
2023/08/12 09:06:44;;;;;;;5.20;3.05;;;22.20;99.90;;;;;;5092528;28;20255;-72
2023/08/12 09:09:14;;;;;;;3.05;2.85;;;23.20;99.90;;;;;;5093198;28;20253;-72
2023/08/12 09:11:40;;;;;;;3.00;2.80;;;23.70;99.90;;;;;;5095669;28;20636;-73
2023/08/12 09:14:06;;;;;;;3.20;2.70;;;23.60;99.90;;;;;;5096939;28;20250;-73
2023/08/12 09:16:32;;;;;;;2.80;2.60;;;23.70;99.90;;;;;;5096317;28;20204;-73
2023/08/12 09:18:58;;;;;;;2.83;2.50;;;23.30;99.90;;;;;;5096024;28;20243;-72
2023/08/12 09:21:24;;;;;;;2.97;2.70;;;23.10;99.90;;;;;;5095379;28;20168;-73
2023/08/12 09:23:49;;;;;;;3.35;2.67;;;23.40;99.90;;;;;;5096363;28;20639;-72
2023/08/12 09:26:17;;;;;;;2.72;2.30;;;24.10;99.90;;;;;;5095152;28;20263;-73
2023/08/12 09:28:43;;;;;;;3.75;2.10;;;24.30;99.90;;;;;;5096420;28;20260;-72
2023/08/12 09:31:26;;;;;;;2.75;2.42;;;24.10;99.90;;;;;;5096697;28;20302;-73
2023/08/12 09:33:53;;;;;;;2.90;2.05;;;24.10;99.90;;;;;;5095879;28;20179;-74
2023/08/12 09:36:18;;;;;;;3.05;2.50;;;24.10;99.90;;;;;;5096213;28;20291;-74
2023/08/12 09:38:45;;;;;;;2.10;1.90;;;23.90;99.90;;;;;;5096172;28;20687;-74
2023/08/12 09:41:11;;;;;;;3.08;2.08;;;23.30;99.90;;;;;;5095997;28;20168;-73
2023/08/12 09:43:41;;;;;;;2.05;1.95;;;22.90;99.90;;;;;;5096106;28;20238;-73
2023/08/12 09:46:10;;;;;;;2.67;1.80;;;22.90;99.90;;;;;;5095945;28;20168;-73
2023/08/12 09:48:35;;;;;;;2.17;1.92;;;23.10;99.90;;;;;;5094754;28;20284;-73
2023/08/12 09:51:01;;;;;;;3.97;2.38;;;23.40;99.90;;;;;;5095727;28;20742;-73
2023/08/12 09:53:27;;;;;;;1.90;1.80;;;23.30;99.90;;;;;;5096307;28;20176;-73
2023/08/12 09:55:53;;;;;;;3.40;2.08;;;23.60;99.90;;;;;;5094443;28;20527;-75
2023/08/12 09:58:22;;;;;;;2.95;1.60;;;24.10;99.90;;;;;;5095974;28;20168;-74
2023/08/12 10:00:48;;;;;;;4.57;1.83;;;24.10;99.90;;;;;;5095417;28;20175;-76
2023/08/12 10:03:17;;;;;;;3.22;1.85;;;24.30;99.90;;;;;;5095309;28;20168;-75
2023/08/12 10:05:44;;;;;;;2.63;1.73;;;24.30;99.90;;;;;;5094669;28;20172;-75
2023/08/12 10:08:10;;;;;;;2.67;1.83;;;24.20;99.90;;;;;;5095502;28;20172;-75
2023/08/12 10:10:35;;;;;;;3.25;1.75;;;24.20;99.90;;;;;;5094833;28;20558;-75
2023/08/12 10:13:01;;;;;;;4.03;1.60;;;24.10;99.90;;;;;;5095338;28;20168;-74
2023/08/12 10:15:27;;;;;;;2.80;1.45;;;24.20;99.90;;;;;;5094996;28;20635;-76
2023/08/12 10:17:56;;;;;;;2.05;1.80;;;24.10;99.90;;;;;;5095104;28;20175;-75
2023/08/12 10:20:23;;;;;;;2.80;1.80;;;24.00;99.90;;;;;;5094802;28;20192;-74
2023/08/12 10:22:49;;;;;;;2.90;1.60;;;24.40;99.90;;;;;;5095313;28;20187;-74
2023/08/12 10:25:18;;;;;;;4.75;1.80;;;24.50;99.90;;;;;;5095127;28;20164;-75
2023/08/12 10:27:44;;;;;;;2.38;1.67;;;24.50;99.90;;;;;;5095107;28;20229;-74
2023/08/12 10:30:10;;;;;;;5.65;1.88;;;24.50;99.90;;;;;;5095061;28;20160;-73
2023/08/12 10:32:36;;;;;;;2.67;1.60;;;25.30;99.90;;;;;;5094896;28;20271;-74
2023/08/12 10:35:02;;;;;;;3.58;2.13;;;25.90;99.90;;;;;;5094817;28;20194;-75
2023/08/12 10:37:32;;;;;;;3.28;1.75;;;26.70;99.90;;;;;;5095432;28;20255;-75
2023/08/12 10:39:58;;;;;;;1.95;1.40;;;26.90;99.90;;;;;;5095318;28;20253;-76
2023/08/12 10:42:43;;;;;;;3.20;1.65;;;27.60;1.00;;;;;;5093317;28;20220;-76
2023/08/12 10:45:10;;;;;;;2.55;1.65;;;28.40;1.00;;;;;;5094546;28;20164;-76
2023/08/12 10:47:48;;;;;;;4.35;1.90;;;29.20;99.90;;;;;;5094966;28;20176;-75
2023/08/12 10:50:21;;;;;;;5.53;1.88;;;29.00;1.00;;;;;;5094551;28;20179;-74
2023/08/12 10:52:50;;;;;;;2.83;1.40;;;29.60;1.00;;;;;;5093648;28;20638;-75
2023/08/12 10:55:27;;;;;;;4.22;2.00;;;29.20;1.00;;;;;;5094058;28;20172;-75
2023/08/12 10:57:54;;;;;;;5.18;1.80;;;30.20;1.00;;;;;;5094715;28;20168;-75
2023/08/12 11:00:24;;;;;;;3.13;1.70;;;29.70;99.90;;;;;;5094299;28;20175;-75
2023/08/12 11:02:51;;;;;;;6.45;1.90;;;29.20;1.00;;;;;;5094188;28;20555;-75
2023/08/12 11:05:20;;;;;;;2.40;1.60;;;29.70;99.90;;;;;;5094296;28;20654;-74
2023/08/12 11:07:58;;;;;;;1.98;1.60;;;30.80;99.90;;;;;;5094015;28;20176;-75
2023/08/12 11:10:25;;;;;;;2.60;1.60;;;29.90;99.90;;;;;;5094150;28;20199;-75
2023/08/12 11:12:56;;;;;;;1.73;1.63;;;29.40;1.00;;;;;;5094097;28;20175;-75
2023/08/12 11:15:46;;;;;;;3.08;1.38;;;29.50;99.90;;;;;;5093505;28;20647;-74
2023/08/12 11:18:17;;;;;;;2.67;1.70;;;30.60;1.00;;;;;;5094063;28;20176;-74
2023/08/12 11:20:43;;;;;;;4.50;1.85;;;31.00;99.90;;;;;;5094397;28;20281;-75
2023/08/12 11:23:10;;;;;;;2.67;1.35;;;30.40;99.90;;;;;;5094095;28;20164;-74
2023/08/12 11:25:38;;;;;;;3.95;1.92;;;30.00;1.00;;;;;;5093894;28;20172;-75
2023/08/12 11:28:07;;;;;;;1.30;1.20;;;30.10;1.00;;;;;;5093593;28;20361;-73
2023/08/12 11:30:34;;;;;;;2.42;1.45;;;29.60;1.00;;;;;;5093243;28;20503;-73
2023/08/12 11:33:01;;;;;;;2.60;1.30;;;29.00;48.30;;;;;;5093142;28;20199;-74
2023/08/12 11:35:27;;;;;;;1.60;1.17;;;28.80;99.90;;;;;;5093814;28;20173;-74
2023/08/12 11:37:57;;;;;;;2.38;1.20;;;29.00;1.00;;;;;;5093526;28;20167;-74
2023/08/12 11:40:25;;;;;;;2.53;1.80;;;29.60;99.90;;;;;;5093956;28;20262;-75
2023/08/12 11:42:52;;;;;;;1.83;1.50;;;29.70;1.00;;;;;;5092850;28;20285;-74
2023/08/12 11:45:20;;;;;;;2.70;1.60;;;29.80;1.00;;;;;;5093105;28;20180;-73
2023/08/12 11:47:52;;;;;;;4.00;1.60;;;29.00;99.90;;;;;;5093999;28;20178;-76
2023/08/12 11:50:19;;;;;;;5.05;1.60;;;27.90;37.40;;;;;;5093415;28;20302;-75
2023/08/12 11:52:46;;;;;;;3.70;1.42;;;27.10;1.00;;;;;;5093111;28;20199;-74
2023/08/12 11:55:12;;;;;;;2.22;1.50;;;27.00;1.00;;;;;;5093079;28;20229;-75
2023/08/12 11:57:42;;;;;;;4.38;1.58;;;26.90;1.00;;;;;;5093336;28;20197;-75
2023/08/12 12:00:18;;;;;;;3.17;1.42;;;26.80;1.00;;;;;;5092925;28;20636;-74
2023/08/12 12:02:52;;;;;;;2.33;1.50;;;26.90;1.00;;;;;;5093251;28;20179;-73
2023/08/12 12:05:21;;;;;;;3.15;1.42;;;27.60;1.00;;;;;;5093264;28;20167;-74
2023/08/12 12:07:49;;;;;;;2.72;1.60;;;27.80;1.00;;;;;;5093641;28;20176;-73
2023/08/12 12:10:28;;;;;;;2.55;1.33;;;28.40;99.90;;;;;;5093066;28;20164;-74
2023/08/12 12:12:58;;;;;;;4.93;1.63;;;28.20;1.00;;;;;;5092489;28;20163;-73
2023/08/12 12:15:24;;;;;;;3.63;1.70;;;28.20;1.00;;;;;;5092596;28;20586;-72
2023/08/12 12:17:50;;;;;;;3.78;1.63;;;27.70;99.90;;;;;;5093250;28;20251;-74
2023/08/12 12:20:16;;;;;;;3.63;1.60;;;27.20;99.90;;;;;;5092974;28;20172;-72
2023/08/12 12:22:43;;;;;;;1.75;1.35;;;26.90;1.00;;;;;;5092633;28;20251;-72
2023/08/12 12:25:11;;;;;;;4.68;1.52;;;26.70;1.00;;;;;;5092658;28;20255;-73
2023/08/12 12:27:38;;;;;;;3.65;1.90;;;26.70;1.00;;;;;;5092623;28;20171;-71
2023/08/12 12:30:05;;;;;;;4.43;2.00;;;26.30;1.00;;;;;;5092702;28;20164;-73
2023/08/12 12:32:31;;;;;;;1.40;1.30;;;26.40;1.00;;;;;;5092842;28;20176;-74
2023/08/12 12:34:57;;;;;;;2.88;1.80;;;26.40;1.00;;;;;;5093087;28;20658;-73
2023/08/12 12:37:22;;;;;;;3.25;1.73;;;26.50;1.00;;;;;;5092751;28;20180;-74
2023/08/12 12:39:48;;;;;;;1.90;1.50;;;26.50;1.00;;;;;;5091376;28;20293;-74
2023/08/12 12:42:14;;;;;;;1.98;1.40;;;26.40;1.00;;;;;;5092003;28;20223;-74